Terminal Aerodrome Forecast
Issued by NWS Duluth, MN

Home | Current Version | Previous Version | Text Only | Print | Product List | Glossary On
Versions: 1 2 3 4 5 6 7 8 9 10 11 12 13 14 15 16
000
FTUS43 KDLH 300928 AAC
TAFDLH
TAF AMD
KDLH 300928Z 3009/0106 03005KT 6SM BR OVC015
     FM301400 08009KT P6SM SCT020
     FM301800 09007KT P6SM SCT250=

USA.gov is the U.S. government's official web portal to all federal, state and local government web resources and services.